| time (UTC) | temp F | wind direction | speed MPH | gust MPH | rain 1hr in | rain 24hr in | rain mn in | humidity % | barometer mb |
| 20260904213732 | 85 | 188 | 8.0 | 23.0 | 0.00 | 0.00 | 0.00 | 19 | 1014.1 |
| 20260904213229 | 85 | 186 | 9.0 | 14.0 | 0.00 | 0.00 | 0.00 | 20 | 1014.2 |
| 20260904212724 | 84 | 178 | 13.0 | 19.0 | 0.00 | 0.00 | 0.00 | 20 | 1014.2 |
| 20260904212219 | 84 | 154 | 21.0 | 23.0 | 0.00 | 0.00 | 0.00 | 19 | 1014.2 |
| 20260904211719 | 84 | 202 | 2.0 | 9.0 | 0.00 | 0.00 | 0.00 | 19 | 1014.4 |
| 20260904211214 | 84 | 173 | 11.0 | 21.0 | 0.00 | 0.00 | 0.00 | 19 | 1014.5 |
| 20260904210714 | 84 | 169 | 12.0 | 23.0 | 0.00 | 0.00 | 0.00 | 18 | 1014.5 |
| 20260904210209 | 84 | 185 | 14.0 | 21.0 | 0.00 | 0.00 | 0.00 | 21 | 1014.5 |
| 20260904205706 | 84 | 169 | 2.0 | 16.0 | 0.00 | 0.00 | 0.00 | 19 | 1014.1 |
| 20260904205201 | 84 | 187 | 8.0 | 22.0 | 0.00 | 0.00 | 0.00 | 19 | 1014.5 |
| 20260904204657 | 84 | 205 | 5.0 | 11.0 | 0.00 | 0.00 | 0.00 | 22 | 1014.7 |
| 20260904204153 | 84 | 180 | 6.0 | 17.0 | 0.00 | 0.00 | 0.00 | 21 | 1014.6 |
| 20260904203649 | 84 | 161 | 6.0 | 13.0 | 0.00 | 0.00 | 0.00 | 21 | 1014.5 |
| 20260904203146 | 84 | 202 | 6.0 | 17.0 | 0.00 | 0.00 | 0.00 | 20 | 1014.9 |
| 20260904202641 | 84 | 161 | 13.0 | 20.0 | 0.00 | 0.00 | 0.00 | 20 | 1014.7 |
| 20260904202138 | 84 | 148 | 16.0 | 31.0 | 0.00 | 0.00 | 0.00 | 20 | 1014.8 |
| 20260904201637 | 84 | 147 | 11.0 | 16.0 | 0.00 | 0.00 | 0.00 | 21 | 1015.2 |
| 20260904201133 | 83 | 161 | 12.0 | 24.0 | 0.00 | 0.00 | 0.00 | 21 | 1014.9 |
| 20260904200632 | 83 | 136 | 7.0 | 17.0 | 0.00 | 0.00 | 0.00 | 20 | 1015.2 |
| 20260904200127 | 83 | 127 | 12.0 | 27.0 | 0.00 | 0.00 | 0.00 | 21 | 1015.1 |
| 20260904195626 | 84 | 185 | 13.0 | 23.0 | 0.00 | 0.00 | 0.00 | 21 | 1015.3 |
| 20260904195125 | 84 | 173 | 8.0 | 13.0 | 0.00 | 0.00 | 0.00 | 23 | 1015.3 |
| 20260904194620 | 84 | 174 | 9.0 | 16.0 | 0.00 | 0.00 | 0.00 | 21 | 1015.2 |
| 20260904194115 | 83 | 180 | 12.0 | 23.0 | 0.00 | 0.00 | 0.00 | 23 | 1015.4 |
| 20260904193615 | 83 | 157 | 11.0 | 28.0 | 0.00 | 0.00 | 0.00 | 22 | 1015.6 |
| 20260904193111 | 83 | 173 | 17.0 | 23.0 | 0.00 | 0.00 | 0.00 | 23 | 1015.5 |
| 20260904192611 | 82 | 155 | 8.0 | 17.0 | 0.00 | 0.00 | 0.00 | 24 | 1015.4 |
| 20260904192107 | 82 | 141 | 17.0 | 20.0 | 0.00 | 0.00 | 0.00 | 24 | 1015.3 |
| 20260904191603 | 82 | 161 | 15.0 | 19.0 | 0.00 | 0.00 | 0.00 | 26 | 1015.6 |
| 20260904191059 | 82 | 149 | 14.0 | 21.0 | 0.00 | 0.00 | 0.00 | 24 | 1015.4 |
| 20260904190555 | 82 | 169 | 10.0 | 19.0 | 0.00 | 0.00 | 0.00 | 23 | 1015.4 |
| 20260904190051 | 81 | 160 | 9.0 | 21.0 | 0.00 | 0.00 | 0.00 | 24 | 1015.6 |
| 20260904185548 | 82 | 187 | 7.0 | 26.0 | 0.00 | 0.00 | 0.00 | 24 | 1015.9 |
| 20260904185042 | 82 | 159 | 18.0 | 21.0 | 0.00 | 0.00 | 0.00 | 24 | 1016.0 |
| 20260904184537 | 81 | 185 | 10.0 | 21.0 | 0.00 | 0.00 | 0.00 | 24 | 1015.9 |
| 20260904184032 | 82 | 192 | 13.0 | 17.0 | 0.00 | 0.00 | 0.00 | 25 | 1016.1 |
| 20260904183527 | 81 | 174 | 8.0 | 13.0 | 0.00 | 0.00 | 0.00 | 25 | 1016.2 |
| 20260904183022 | 81 | 187 | 8.0 | 17.0 | 0.00 | 0.00 | 0.00 | 24 | 1016.0 |
| 20260904182518 | 81 | 168 | 13.0 | 24.0 | 0.00 | 0.00 | 0.00 | 25 | 1016.2 |
| 20260904182017 | 81 | 186 | 18.0 | 27.0 | 0.00 | 0.00 | 0.00 | 26 | 1016.1 |
| 20260904181513 | 80 | 153 | 15.0 | 20.0 | 0.00 | 0.00 | 0.00 | 25 | 1016.4 |
| 20260904181013 | 80 | 160 | 12.0 | 25.0 | 0.00 | 0.00 | 0.00 | 26 | 1016.1 |
| 20260904180513 | 80 | 175 | 16.0 | 23.0 | 0.00 | 0.00 | 0.00 | 25 | 1016.4 |
| 20260904180008 | 81 | 161 | 14.0 | 18.0 | 0.00 | 0.00 | 0.00 | 26 | 1016.2 |
| 20260904175502 | 80 | 170 | 7.0 | 19.0 | 0.00 | 0.00 | 0.00 | 27 | 1016.2 |
| 20260904175001 | 80 | 143 | 8.0 | 23.0 | 0.00 | 0.00 | 0.00 | 26 | 1016.6 |
| 20260904174456 | 80 | 127 | 11.0 | 17.0 | 0.00 | 0.00 | 0.00 | 26 | 1016.6 |
| 20260904173953 | 80 | 182 | 11.0 | 21.0 | 0.00 | 0.00 | 0.00 | 26 | 1016.3 |
| 20260904173453 | 80 | 159 | 24.0 | 27.0 | 0.00 | 0.00 | 0.00 | 26 | 1016.6 |
| 20260904172949 | 80 | 155 | 11.0 | 18.0 | 0.00 | 0.00 | 0.00 | 27 | 1016.4 |
| 20260904172444 | 80 | 141 | 15.0 | 27.0 | 0.00 | 0.00 | 0.00 | 26 | 1016.2 |
| 20260904171943 | 80 | 182 | 6.0 | 26.0 | 0.00 | 0.00 | 0.00 | 25 | 1016.6 |
| 20260904171439 | 79 | 150 | 10.0 | 16.0 | 0.00 | 0.00 | 0.00 | 27 | 1016.0 |
| 20260904170935 | 79 | 163 | 15.0 | 26.0 | 0.00 | 0.00 | 0.00 | 26 | 1016.4 |
| 20260904170430 | 79 | 122 | 11.0 | 20.0 | 0.00 | 0.00 | 0.00 | 25 | 1016.4 |
| 20260904165925 | 79 | 154 | 20.0 | 26.0 | 0.00 | 0.00 | 0.00 | 25 | 1016.4 |
| 20260904165425 | 80 | 134 | 8.0 | 21.0 | 0.00 | 0.00 | 0.00 | 25 | 1016.4 |
| 20260904164924 | 79 | 140 | 8.0 | 12.0 | 0.00 | 0.00 | 0.00 | 26 | 1016.4 |
| 20260904164424 | 79 | 138 | 14.0 | 15.0 | 0.00 | 0.00 | 0.00 | 25 | 1016.4 |
| 20260904163921 | 79 | 128 | 9.0 | 18.0 | 0.00 | 0.00 | 0.00 | 25 | 1016.3 |
| 20260904163420 | 79 | 99 | 8.0 | 17.0 | 0.00 | 0.00 | 0.00 | 24 | 1016.3 |
| 20260904162919 | 79 | 156 | 9.0 | 23.0 | 0.00 | 0.00 | 0.00 | 24 | 1016.6 |
| 20260904162415 | 79 | 149 | 11.0 | 16.0 | 0.00 | 0.00 | 0.00 | 25 | 1016.7 |
| 20260904161910 | 78 | 158 | 7.0 | 16.0 | 0.00 | 0.00 | 0.00 | 26 | 1016.3 |
| 20260904161405 | 78 | 175 | 14.0 | 20.0 | 0.00 | 0.00 | 0.00 | 25 | 1016.7 |
| 20260904160901 | 79 | 163 | 7.0 | 18.0 | 0.00 | 0.00 | 0.00 | 25 | 1016.7 |
| 20260904160356 | 79 | 194 | 10.0 | 14.0 | 0.00 | 0.00 | 0.00 | 23 | 1016.4 |
| 20260904155851 | 78 | 180 | 6.0 | 14.0 | 0.00 | 0.00 | 0.00 | 23 | 1016.3 |
| 20260904155346 | 78 | 146 | 9.0 | 18.0 | 0.00 | 0.00 | 0.00 | 23 | 1016.4 |
| 20260904154844 | 78 | 148 | 10.0 | 21.0 | 0.00 | 0.00 | 0.00 | 23 | 1016.2 |
| 20260904154339 | 78 | 167 | 5.0 | 9.0 | 0.00 | 0.00 | 0.00 | 22 | 1016.2 |
| 20260904153835 | 78 | 158 | 8.0 | 14.0 | 0.00 | 0.00 | 0.00 | 23 | 1016.3 |
| 20260904153330 | 78 | 164 | 11.0 | 16.0 | 0.00 | 0.00 | 0.00 | 24 | 1016.1 |
| 20260904152827 | 78 | 179 | 7.0 | 11.0 | 0.00 | 0.00 | 0.00 | 24 | 1016.0 |
| 20260904152326 | 77 | 162 | 10.0 | 18.0 | 0.00 | 0.00 | 0.00 | 24 | 1015.9 |
| 20260904151821 | 77 | 149 | 4.0 | 21.0 | 0.00 | 0.00 | 0.00 | 22 | 1016.2 |
| 20260904151320 | 76 | 176 | 7.0 | 14.0 | 0.00 | 0.00 | 0.00 | 24 | 1016.1 |
| 20260904150817 | 75 | 151 | 12.0 | 19.0 | 0.00 | 0.00 | 0.00 | 24 | 1015.9 |
| 20260904150312 | 73 | 165 | 9.0 | 10.0 | 0.00 | 0.00 | 0.00 | 25 | 1015.9 |
| 20260904145809 | 72 | 154 | 10.0 | 17.0 | 0.00 | 0.00 | 0.00 | 26 | 1016.0 |
| 20260904145306 | 72 | 156 | 5.0 | 9.0 | 0.00 | 0.00 | 0.00 | 27 | 1015.9 |
| 20260904144801 | 72 | 202 | 4.0 | 11.0 | 0.00 | 0.00 | 0.00 | 27 | 1015.9 |
| 20260904144257 | 72 | 167 | 5.0 | 13.0 | 0.00 | 0.00 | 0.00 | 27 | 1015.6 |
| 20260904143752 | 72 | 171 | 7.0 | 13.0 | 0.00 | 0.00 | 0.00 | 27 | 1016.1 |
| 20260904143249 | 71 | 192 | 11.0 | 16.0 | 0.00 | 0.00 | 0.00 | 27 | 1015.7 |
| 20260904142744 | 71 | 177 | 5.0 | 20.0 | 0.00 | 0.00 | 0.00 | 26 | 1016.0 |
| 20260904142241 | 71 | 147 | 6.0 | 17.0 | 0.00 | 0.00 | 0.00 | 27 | 1015.7 |
| 20260904141740 | 70 | 177 | 10.0 | 16.0 | 0.00 | 0.00 | 0.00 | 26 | 1015.9 |
| 20260904141236 | 71 | 181 | 7.0 | 16.0 | 0.00 | 0.00 | 0.00 | 25 | 1015.6 |
| 20260904140731 | 70 | 155 | 12.0 | 20.0 | 0.00 | 0.00 | 0.00 | 25 | 1015.4 |
| 20260904140226 | 70 | 161 | 12.0 | 19.0 | 0.00 | 0.00 | 0.00 | 24 | 1015.7 |
| 20260904135725 | 69 | 165 | 9.0 | 14.0 | 0.00 | 0.00 | 0.00 | 26 | 1015.6 |
| 20260904135221 | 68 | 168 | 9.0 | 15.0 | 0.00 | 0.00 | 0.00 | 25 | 1015.6 |
| 20260904134716 | 68 | 170 | 9.0 | 13.0 | 0.00 | 0.00 | 0.00 | 25 | 1015.5 |
| 20260904134216 | 68 | 163 | 12.0 | 17.0 | 0.00 | 0.00 | 0.00 | 25 | 1015.5 |
| 20260904133710 | 68 | 162 | 12.0 | 17.0 | 0.00 | 0.00 | 0.00 | 24 | 1015.4 |
| 20260904133207 | 68 | 153 | 11.0 | 21.0 | 0.00 | 0.00 | 0.00 | 23 | 1015.6 |
| 20260904132706 | 68 | 168 | 9.0 | 15.0 | 0.00 | 0.00 | 0.00 | 24 | 1015.5 |
| 20260904132202 | 68 | 157 | 15.0 | 20.0 | 0.00 | 0.00 | 0.00 | 23 | 1015.3 |
| 20260904131700 | 69 | 166 | 11.0 | 15.0 | 0.00 | 0.00 | 0.00 | 23 | 1015.5 |
| 20260904131157 | 68 | 144 | 13.0 | 17.0 | 0.00 | 0.00 | 0.00 | 23 | 1015.1 |
| 20260904130656 | 68 | 193 | 15.0 | 17.0 | 0.00 | 0.00 | 0.00 | 22 | 1015.2 |
| 20260904130156 | 69 | 163 | 6.0 | 14.0 | 0.00 | 0.00 | 0.00 | 22 | 1015.3 |
| 20260904125652 | 68 | 158 | 14.0 | 16.0 | 0.00 | 0.00 | 0.00 | 22 | 1015.1 |
| 20260904125148 | 68 | 179 | 9.0 | 15.0 | 0.00 | 0.00 | 0.00 | 22 | 1015.2 |
| 20260904124643 | 68 | 168 | 13.0 | 18.0 | 0.00 | 0.00 | 0.00 | 22 | 1014.9 |
| 20260904124138 | 69 | 170 | 13.0 | 19.0 | 0.00 | 0.00 | 0.00 | 22 | 1014.9 |
| 20260904123633 | 69 | 155 | 13.0 | 22.0 | 0.00 | 0.00 | 0.00 | 21 | 1014.7 |
| 20260904123129 | 69 | 146 | 13.0 | 19.0 | 0.00 | 0.00 | 0.00 | 22 | 1014.6 |
| 20260904122629 | 69 | 159 | 10.0 | 20.0 | 0.00 | 0.00 | 0.00 | 22 | 1014.7 |
| 20260904122124 | 69 | 139 | 14.0 | 26.0 | 0.00 | 0.00 | 0.00 | 21 | 1014.4 |
| 20260904121619 | 69 | 183 | 9.0 | 25.0 | 0.00 | 0.00 | 0.00 | 21 | 1014.5 |
| 20260904121114 | 69 | 162 | 13.0 | 20.0 | 0.00 | 0.00 | 0.00 | 21 | 1014.6 |
| 20260904120611 | 69 | 149 | 18.0 | 21.0 | 0.00 | 0.00 | 0.00 | 21 | 1014.4 |
| 20260904120106 | 69 | 161 | 17.0 | 21.0 | 0.00 | 0.00 | 0.00 | 21 | 1014.6 |
| 20260904115601 | 69 | 153 | 15.0 | 22.0 | 0.00 | 0.00 | 0.00 | 21 | 1014.4 |
| 20260904115056 | 69 | 155 | 12.0 | 23.0 | 0.00 | 0.00 | 0.00 | 20 | 1014.6 |
| 20260904114557 | 69 | 153 | 13.0 | 21.0 | 0.00 | 0.00 | 0.00 | 20 | 1014.1 |
| 20260904114057 | 69 | 156 | 12.0 | 19.0 | 0.00 | 0.00 | 0.00 | 20 | 1014.2 |
| 20260904113556 | 70 | 163 | 10.0 | 19.0 | 0.00 | 0.00 | 0.00 | 20 | 1014.2 |
| 20260904113056 | 70 | 151 | 14.0 | 21.0 | 0.00 | 0.00 | 0.00 | 19 | 1014.4 |
| 20260904112551 | 70 | 160 | 14.0 | 17.0 | 0.00 | 0.00 | 0.00 | 19 | 1014.2 |
| 20260904112048 | 70 | 151 | 8.0 | 21.0 | 0.00 | 0.00 | 0.00 | 19 | 1014.1 |
| 20260904111543 | 70 | 173 | 13.0 | 16.0 | 0.00 | 0.00 | 0.00 | 19 | 1014.1 |
| 20260904111038 | 71 | 163 | 10.0 | 19.0 | 0.00 | 0.00 | 0.00 | 18 | 1014.2 |
| 20260904110538 | 71 | 154 | 17.0 | 20.0 | 0.00 | 0.00 | 0.00 | 18 | 1014.0 |
| 20260904110034 | 71 | 166 | 9.0 | 16.0 | 0.00 | 0.00 | 0.00 | 18 | 1014.1 |
| 20260904105533 | 70 | 161 | 14.0 | 20.0 | 0.00 | 0.00 | 0.00 | 19 | 1013.9 |
| 20260904105028 | 71 | 162 | 11.0 | 17.0 | 0.00 | 0.00 | 0.00 | 18 | 1013.8 |
| 20260904104524 | 70 | 148 | 12.0 | 21.0 | 0.00 | 0.00 | 0.00 | 17 | 1013.9 |
| 20260904104019 | 70 | 179 | 11.0 | 16.0 | 0.00 | 0.00 | 0.00 | 18 | 1013.9 |
| 20260904103515 | 70 | 173 | 12.0 | 19.0 | 0.00 | 0.00 | 0.00 | 18 | 1013.8 |
| 20260904103011 | 70 | 146 | 12.0 | 22.0 | 0.00 | 0.00 | 0.00 | 17 | 1013.9 |
| 20260904102507 | 70 | 168 | 19.0 | 21.0 | 0.00 | 0.00 | 0.00 | 18 | 1014.0 |
| 20260904102002 | 71 | 169 | 11.0 | 25.0 | 0.00 | 0.00 | 0.00 | 17 | 1013.7 |
| 20260904101459 | 71 | 149 | 11.0 | 17.0 | 0.00 | 0.00 | 0.00 | 17 | 1013.4 |
| 20260904100954 | 71 | 151 | 14.0 | 20.0 | 0.00 | 0.00 | 0.00 | 17 | 1013.7 |
| 20260904100449 | 71 | 147 | 8.0 | 14.0 | 0.00 | 0.00 | 0.00 | 17 | 1013.6 |
| 20260904095948 | 71 | 142 | 15.0 | 27.0 | 0.00 | 0.00 | 0.00 | 17 | 1013.3 |
| 20260904095444 | 71 | 170 | 11.0 | 20.0 | 0.00 | 0.00 | 0.00 | 17 | 1013.3 |
| 20260904094944 | 71 | 158 | 18.0 | 22.0 | 0.00 | 0.00 | 0.00 | 17 | 1013.4 |
| 20260904094440 | 71 | 179 | 13.0 | 23.0 | 0.00 | 0.00 | 0.00 | 17 | 1013.4 |
| 20260904093935 | 71 | 171 | 11.0 | 20.0 | 0.00 | 0.00 | 0.00 | 17 | 1013.3 |
| 20260904093431 | 71 | 156 | 14.0 | 21.0 | 0.00 | 0.00 | 0.00 | 18 | 1013.2 |
| 20260904092927 | 71 | 146 | 17.0 | 21.0 | 0.00 | 0.00 | 0.00 | 17 | 1013.7 |
| 20260904092423 | 71 | 151 | 9.0 | 25.0 | 0.00 | 0.00 | 0.00 | 18 | 1013.3 |
| 20260904091919 | 71 | 158 | 11.0 | 21.0 | 0.00 | 0.00 | 0.00 | 18 | 1013.3 |
| 20260904091414 | 71 | 155 | 15.0 | 20.0 | 0.00 | 0.00 | 0.00 | 17 | 1013.4 |
| 20260904090909 | 71 | 144 | 17.0 | 22.0 | 0.00 | 0.00 | 0.00 | 18 | 1013.1 |
| 20260904090405 | 71 | 163 | 9.0 | 19.0 | 0.00 | 0.00 | 0.00 | 19 | 1013.3 |
| 20260904085859 | 71 | 160 | 13.0 | 18.0 | 0.00 | 0.00 | 0.00 | 19 | 1013.3 |
| 20260904085355 | 71 | 156 | 14.0 | 22.0 | 0.00 | 0.00 | 0.00 | 19 | 1013.2 |
| 20260904084855 | 71 | 160 | 12.0 | 18.0 | 0.00 | 0.00 | 0.00 | 18 | 1013.3 |
| 20260904084351 | 72 | 165 | 10.0 | 18.0 | 0.00 | 0.00 | 0.00 | 18 | 1013.3 |
| 20260904083847 | 71 | 143 | 8.0 | 17.0 | 0.00 | 0.00 | 0.00 | 18 | 1013.2 |
| 20260904083343 | 71 | 153 | 12.0 | 27.0 | 0.00 | 0.00 | 0.00 | 18 | 1013.2 |
| 20260904082839 | 71 | 153 | 11.0 | 20.0 | 0.00 | 0.00 | 0.00 | 18 | 1013.4 |
| 20260904082339 | 71 | 169 | 13.0 | 20.0 | 0.00 | 0.00 | 0.00 | 18 | 1013.1 |
| 20260904081834 | 71 | 151 | 20.0 | 25.0 | 0.00 | 0.00 | 0.00 | 18 | 1012.9 |
| 20260904081329 | 71 | 154 | 18.0 | 21.0 | 0.00 | 0.00 | 0.00 | 19 | 1013.1 |
| 20260904080826 | 72 | 163 | 12.0 | 21.0 | 0.00 | 0.00 | 0.00 | 18 | 1013.3 |
| 20260904080320 | 71 | 146 | 14.0 | 19.0 | 0.00 | 0.00 | 0.00 | 19 | 1013.1 |
| 20260904075817 | 71 | 163 | 14.0 | 20.0 | 0.00 | 0.00 | 0.00 | 20 | 1013.1 |
| 20260904075312 | 71 | 155 | 15.0 | 21.0 | 0.00 | 0.00 | 0.00 | 20 | 1013.4 |
| 20260904074810 | 71 | 152 | 10.0 | 18.0 | 0.00 | 0.00 | 0.00 | 20 | 1013.2 |
| 20260904074306 | 71 | 127 | 16.0 | 19.0 | 0.00 | 0.00 | 0.00 | 19 | 1013.2 |
| 20260904073801 | 71 | 167 | 11.0 | 17.0 | 0.00 | 0.00 | 0.00 | 20 | 1013.0 |
| 20260904073257 | 71 | 148 | 14.0 | 17.0 | 0.00 | 0.00 | 0.00 | 20 | 1013.1 |
| 20260904072753 | 70 | 170 | 9.0 | 16.0 | 0.00 | 0.00 | 0.00 | 21 | 1013.0 |
| 20260904072252 | 70 | 170 | 11.0 | 15.0 | 0.00 | 0.00 | 0.00 | 22 | 1013.0 |
| 20260904071748 | 71 | 190 | 12.0 | 16.0 | 0.00 | 0.00 | 0.00 | 21 | 1012.7 |
| 20260904071248 | 71 | 153 | 12.0 | 18.0 | 0.00 | 0.00 | 0.00 | 21 | 1013.0 |
| 20260904070743 | 71 | 155 | 14.0 | 16.0 | 0.00 | 0.00 | 0.00 | 21 | 1013.0 |
| 20260904070243 | 71 | 155 | 14.0 | 15.0 | 0.00 | 0.00 | 0.00 | 20 | 1012.7 |
| 20260904065742 | 71 | 164 | 12.0 | 15.0 | 0.00 | 0.00 | 0.00 | 20 | 1013.0 |
| 20260904065239 | 71 | 172 | 9.0 | 18.0 | 0.00 | 0.00 | 0.00 | 21 | 1012.9 |
| 20260904064739 | 71 | 172 | 13.0 | 16.0 | 0.00 | 0.00 | 0.00 | 21 | 1013.1 |
| 20260904064234 | 71 | 156 | 10.0 | 19.0 | 0.00 | 0.00 | 0.00 | 21 | 1012.6 |
| 20260904063730 | 71 | 152 | 11.0 | 18.0 | 0.00 | 0.00 | 0.00 | 22 | 1012.9 |
| 20260904063226 | 72 | 174 | 11.0 | 16.0 | 0.00 | 0.00 | 0.00 | 21 | 1012.7 |
| 20260904062722 | 73 | 178 | 6.0 | 18.0 | 0.00 | 0.00 | 0.00 | 21 | 1012.7 |
| 20260904062217 | 73 | 163 | 13.0 | 21.0 | 0.00 | 0.00 | 0.00 | 20 | 1012.9 |
| 20260904061713 | 73 | 153 | 18.0 | 22.0 | 0.00 | 0.00 | 0.00 | 20 | 1012.6 |
| 20260904061209 | 72 | 169 | 13.0 | 16.0 | 0.00 | 0.00 | 0.00 | 21 | 1012.4 |
| 20260904060706 | 72 | 147 | 7.0 | 17.0 | 0.00 | 0.00 | 0.00 | 21 | 1012.6 |
| 20260904060201 | 72 | 154 | 14.0 | 20.0 | 0.00 | 0.00 | 0.00 | 21 | 1012.4 |
| 20260904055656 | 72 | 161 | 8.0 | 15.0 | 0.00 | 0.00 | 0.00 | 21 | 1012.6 |
| 20260904055151 | 72 | 156 | 9.0 | 18.0 | 0.00 | 0.00 | 0.00 | 21 | 1012.6 |
| 20260904054642 | 72 | 170 | 12.0 | 17.0 | 0.00 | 0.00 | 0.00 | 21 | 1012.5 |
| 20260904054138 | 72 | 166 | 11.0 | 18.0 | 0.00 | 0.00 | 0.00 | 21 | 1012.4 |
| 20260904053637 | 72 | 150 | 14.0 | 15.0 | 0.00 | 0.00 | 0.00 | 21 | 1012.4 |
| 20260904053131 | 73 | 165 | 9.0 | 14.0 | 0.00 | 0.00 | 0.00 | 21 | 1012.4 |
| 20260904052628 | 73 | 164 | 12.0 | 17.0 | 0.00 | 0.00 | 0.00 | 21 | 1012.4 |
| 20260904052125 | 73 | 166 | 10.0 | 16.0 | 0.00 | 0.00 | 0.00 | 21 | 1012.6 |
| 20260904051621 | 73 | 152 | 8.0 | 18.0 | 0.00 | 0.00 | 0.00 | 21 | 1012.4 |
| 20260904051120 | 73 | 175 | 8.0 | 17.0 | 0.00 | 0.00 | 0.00 | 21 | 1012.6 |
| 20260904050616 | 73 | 160 | 12.0 | 18.0 | 0.00 | 0.00 | 0.00 | 21 | 1012.5 |
| 20260904050113 | 73 | 164 | 9.0 | 14.0 | 0.00 | 0.00 | 0.00 | 22 | 1012.3 |
| 20260904045613 | 73 | 168 | 8.0 | 14.0 | 0.00 | 0.00 | 0.00 | 21 | 1012.5 |
| 20260904045107 | 74 | 157 | 12.0 | 17.0 | 0.00 | 0.00 | 0.00 | 21 | 1012.5 |
| 20260904044603 | 73 | 153 | 16.0 | 19.0 | 0.00 | 0.00 | 0.00 | 21 | 1012.4 |
| 20260904044059 | 74 | 170 | 9.0 | 18.0 | 0.00 | 0.00 | 0.00 | 21 | 1012.4 |
| 20260904043555 | 74 | 161 | 8.0 | 17.0 | 0.00 | 0.00 | 0.00 | 22 | 1012.3 |
| 20260904043051 | 74 | 149 | 10.0 | 16.0 | 0.00 | 0.00 | 0.00 | 21 | 1012.4 |
| 20260904042547 | 74 | 147 | 10.0 | 17.0 | 0.00 | 0.00 | 0.00 | 21 | 1012.3 |
| 20260904042043 | 74 | 177 | 6.0 | 17.0 | 0.00 | 0.00 | 0.00 | 22 | 1012.4 |
| 20260904041538 | 74 | 162 | 12.0 | 19.0 | 0.00 | 0.00 | 0.00 | 21 | 1012.3 |
| 20260904041034 | 74 | 145 | 15.0 | 16.0 | 0.00 | 0.00 | 0.00 | 21 | 1012.3 |
| 20260904040534 | 74 | 152 | 11.0 | 19.0 | 0.00 | 0.00 | 0.00 | 22 | 1012.2 |
| 20260904040031 | 74 | 180 | 8.0 | 13.0 | 0.00 | 0.00 | 0.00 | 22 | 1012.0 |
| 20260904035531 | 74 | 173 | 10.0 | 12.0 | 0.00 | 0.00 | 0.00 | 23 | 1012.2 |
| 20260904035030 | 74 | 163 | 9.0 | 18.0 | 0.00 | 0.00 | 0.00 | 22 | 1012.3 |
| 20260904034525 | 74 | 147 | 10.0 | 17.0 | 0.00 | 0.00 | 0.00 | 22 | 1012.0 |
| 20260904034021 | 74 | 158 | 15.0 | 18.0 | 0.00 | 0.00 | 0.00 | 22 | 1012.0 |
| 20260904033517 | 74 | 171 | 10.0 | 17.0 | 0.00 | 0.00 | 0.00 | 22 | 1012.2 |
| 20260904033014 | 74 | 158 | 6.0 | 15.0 | 0.00 | 0.00 | 0.00 | 23 | 1012.0 |
| 20260904032508 | 74 | 158 | 8.0 | 15.0 | 0.00 | 0.00 | 0.00 | 22 | 1012.2 |
| 20260904032008 | 75 | 159 | 12.0 | 14.0 | 0.00 | 0.00 | 0.00 | 22 | 1012.4 |
| 20260904031503 | 75 | 178 | 8.0 | 14.0 | 0.00 | 0.00 | 0.00 | 22 | 1012.2 |
| 20260904030959 | 75 | 166 | 9.0 | 17.0 | 0.00 | 0.00 | 0.00 | 21 | 1011.9 |
| 20260904030454 | 76 | 169 | 11.0 | 15.0 | 0.00 | 0.00 | 0.00 | 21 | 1012.0 |
| 20260904025949 | 76 | 150 | 9.0 | 17.0 | 0.00 | 0.00 | 0.00 | 21 | 1011.9 |
| 20260904025445 | 77 | 142 | 13.0 | 19.0 | 0.00 | 0.00 | 0.00 | 20 | 1011.9 |
| 20260904024945 | 77 | 166 | 10.0 | 15.0 | 0.00 | 0.00 | 0.00 | 20 | 1011.8 |
| 20260904024441 | 77 | 158 | 15.0 | 22.0 | 0.00 | 0.00 | 0.00 | 20 | 1011.7 |
| 20260904023936 | 77 | 154 | 13.0 | 19.0 | 0.00 | 0.00 | 0.00 | 19 | 1011.7 |
| 20260904023433 | 76 | 148 | 13.0 | 17.0 | 0.00 | 0.00 | 0.00 | 21 | 1011.6 |
| 20260904022932 | 76 | 176 | 14.0 | 17.0 | 0.00 | 0.00 | 0.00 | 21 | 1011.7 |
| 20260904022429 | 76 | 153 | 8.0 | 17.0 | 0.00 | 0.00 | 0.00 | 20 | 1011.6 |
| 20260904021925 | 77 | 170 | 5.0 | 13.0 | 0.00 | 0.00 | 0.00 | 20 | 1011.6 |
| 20260904021421 | 77 | 152 | 12.0 | 15.0 | 0.00 | 0.00 | 0.00 | 20 | 1011.9 |
| 20260904020920 | 77 | 149 | 6.0 | 16.0 | 0.00 | 0.00 | 0.00 | 19 | 1011.5 |
| 20260904020416 | 79 | 155 | 12.0 | 14.0 | 0.00 | 0.00 | 0.00 | 17 | 1011.7 |
| 20260904015914 | 79 | 152 | 7.0 | 16.0 | 0.00 | 0.00 | 0.00 | 17 | 1011.6 |
| 20260904015410 | 79 | 166 | 8.0 | 17.0 | 0.00 | 0.00 | 0.00 | 16 | 1011.5 |
| 20260904014908 | 79 | 169 | 10.0 | 15.0 | 0.00 | 0.00 | 0.00 | 17 | 1011.5 |
| 20260904014404 | 79 | 163 | 9.0 | 15.0 | 0.00 | 0.00 | 0.00 | 17 | 1011.7 |
| 20260904013859 | 80 | 193 | 9.0 | 13.0 | 0.00 | 0.00 | 0.00 | 17 | 1011.8 |
| 20260904013355 | 80 | 168 | 7.0 | 17.0 | 0.00 | 0.00 | 0.00 | 17 | 1011.7 |
| 20260904012851 | 80 | 185 | 9.0 | 11.0 | 0.00 | 0.00 | 0.00 | 18 | 1011.9 |
| 20260904012345 | 80 | 162 | 16.0 | 16.0 | 0.00 | 0.00 | 0.00 | 18 | 1011.6 |
| 20260904011845 | 81 | 176 | 17.0 | 19.0 | 0.00 | 0.00 | 0.00 | 17 | 1011.6 |
| 20260904011340 | 82 | 192 | 10.0 | 13.0 | 0.00 | 0.00 | 0.00 | 18 | 1011.8 |
| 20260904010835 | 82 | 213 | 7.0 | 12.0 | 0.00 | 0.00 | 0.00 | 18 | 1011.7 |
| 20260904010332 | 83 | 154 | 10.0 | 14.0 | 0.00 | 0.00 | 0.00 | 18 | 1011.7 |
| 20260904005832 | 83 | 155 | 15.0 | 15.0 | 0.00 | 0.00 | 0.00 | 18 | 1012.0 |
| 20260904005328 | 81 | 163 | 11.0 | 18.0 | 0.00 | 0.00 | 0.00 | 18 | 1011.9 |
| 20260904004823 | 81 | 147 | 10.0 | 11.0 | 0.00 | 0.00 | 0.00 | 18 | 1011.7 |
| 20260904004319 | 81 | 170 | 6.0 | 12.0 | 0.00 | 0.00 | 0.00 | 18 | 1011.7 |
| 20260904003814 | 81 | 169 | 12.0 | 17.0 | 0.00 | 0.00 | 0.00 | 16 | 1012.0 |
| 20260904003310 | 82 | 162 | 10.0 | 12.0 | 0.00 | 0.00 | 0.00 | 18 | 1011.8 |
| 20260904002805 | 82 | 146 | 7.0 | 17.0 | 0.00 | 0.00 | 0.00 | 17 | 1011.6 |
| 20260904002301 | 84 | 181 | 7.0 | 10.0 | 0.00 | 0.00 | 0.00 | 17 | 1011.8 |
| 20260904001800 | 85 | 174 | 7.0 | 13.0 | 0.00 | 0.00 | 0.00 | 15 | 1011.9 |
| 20260904001255 | 85 | 164 | 13.0 | 17.0 | 0.00 | 0.00 | 0.00 | 15 | 1011.8 |
| 20260904000751 | 84 | 154 | 6.0 | 22.0 | 0.00 | 0.00 | 0.00 | 15 | 1012.0 |
| 20260904000251 | 84 | 170 | 17.0 | 21.0 | 0.00 | 0.00 | 0.00 | 16 | 1011.9 |
| 20260903235750 | 84 | 166 | 8.0 | 16.0 | 0.00 | 0.00 | 0.00 | 16 | 1012.0 |
| 20260903235247 | 86 | 156 | 10.0 | 19.0 | 0.00 | 0.00 | 0.00 | 15 | 1012.0 |
| 20260903234746 | 85 | 149 | 12.0 | 16.0 | 0.00 | 0.00 | 0.00 | 15 | 1011.9 |
| 20260903234243 | 85 | 193 | 11.0 | 18.0 | 0.00 | 0.00 | 0.00 | 15 | 1012.0 |
| 20260903233738 | 85 | 159 | 9.0 | 16.0 | 0.00 | 0.00 | 0.00 | 15 | 1012.2 |
| 20260903233234 | 85 | 184 | 9.0 | 22.0 | 0.00 | 0.00 | 0.00 | 15 | 1012.2 |
| 20260903232733 | 85 | 146 | 9.0 | 21.0 | 0.00 | 0.00 | 0.00 | 16 | 1012.3 |
| 20260903232229 | 84 | 179 | 9.0 | 22.0 | 0.00 | 0.00 | 0.00 | 16 | 1012.2 |
| 20260903231728 | 83 | 189 | 6.0 | 21.0 | 0.00 | 0.00 | 0.00 | 15 | 1012.2 |
| 20260903231224 | 83 | 156 | 21.0 | 25.0 | 0.00 | 0.00 | 0.00 | 16 | 1012.7 |
| 20260903230719 | 83 | 124 | 6.0 | 9.0 | 0.00 | 0.00 | 0.00 | 17 | 1012.5 |
| 20260903230219 | 83 | 146 | 10.0 | 19.0 | 0.00 | 0.00 | 0.00 | 16 | 1012.4 |
| 20260903225716 | 84 | 226 | 6.0 | 15.0 | 0.00 | 0.00 | 0.00 | 15 | 1012.7 |
| 20260903225212 | 83 | 142 | 15.0 | 19.0 | 0.00 | 0.00 | 0.00 | 16 | 1012.7 |
| 20260903224708 | 82 | 149 | 9.0 | 15.0 | 0.00 | 0.00 | 0.00 | 16 | 1012.7 |
| 20260903224204 | 82 | 128 | 14.0 | 26.0 | 0.00 | 0.00 | 0.00 | 15 | 1012.7 |
| 20260903223658 | 82 | 138 | 15.0 | 16.0 | 0.00 | 0.00 | 0.00 | 16 | 1013.1 |
| 20260903223157 | 82 | 136 | 15.0 | 19.0 | 0.00 | 0.00 | 0.00 | 16 | 1012.9 |
| 20260903222652 | 82 | 228 | 3.0 | 20.0 | 0.00 | 0.00 | 0.00 | 16 | 1012.9 |
| 20260903222150 | 82 | 187 | 11.0 | 18.0 | 0.00 | 0.00 | 0.00 | 17 | 1013.0 |
| 20260903221646 | 81 | 152 | 14.0 | 20.0 | 0.00 | 0.00 | 0.00 | 17 | 1013.1 |
| 20260903221144 | 82 | 180 | 8.0 | 25.0 | 0.00 | 0.00 | 0.00 | 17 | 1013.3 |
| 20260903220643 | 82 | 175 | 15.0 | 22.0 | 0.00 | 0.00 | 0.00 | 16 | 1013.4 |
| 20260903220138 | 81 | 135 | 7.0 | 16.0 | 0.00 | 0.00 | 0.00 | 17 | 1013.2 |
| 20260903215637 | 81 | 182 | 6.0 | 21.0 | 0.00 | 0.00 | 0.00 | 18 | 1013.4 |
| 20260903215132 | 81 | 162 | 16.0 | 24.0 | 0.00 | 0.00 | 0.00 | 16 | 1013.6 |
| 20260903214631 | 81 | 157 | 11.0 | 22.0 | 0.00 | 0.00 | 0.00 | 16 | 1013.7 |
| 20260903214126 | 81 | 147 | 17.0 | 20.0 | 0.00 | 0.00 | 0.00 | 16 | 1013.4 |